Observations for CRANFIELD, United Kingdom (EGTC)

EGTC 211520Z 15015KT 3000 -RA BKN006 01/01 Q1007 R88/690592 
EGTC 211450Z 16016KT 2500 -RA BKN005 01/01 Q1007 R88/690592 
EGTC 211420Z 14013KT 3000 -RA BR BKN005 01/01 Q1008 R88/690592  
EGTC 211350Z 13012KT 2500 -RADZ BR BKN005 01/01 Q1009 R88/690592
EGTC 211320Z 13011KT 2500 DZ BR BKN005 01/01 Q1010 R88/690592   
EGTC 211250Z 13009KT 2500 -RA BR BKN002 01/01 Q1011 R88/690592  
EGTC 211220Z 13009KT 1200 -SN BR VV/// 01/01 Q1011 R88/690592   
EGTC 211150Z 13008KT 0700 -SN BR VV/// 01/01 Q1012 R88/690592   
EGTC 211120Z 13008KT 0700 SN BR VV/// 01/01 Q1013   
EGTC 211050Z 13007KT 1300 -SN BR VV/// 01/01 Q1013  
EGTC 211020Z 14006KT 1500 -SN BR VV/// 01/01 Q1013  
EGTC 210950Z 14006KT 1200 BR -SN VV/// 01/01 Q1013  
EGTC 210920Z 16006KT 1400 BR -SN VV/// 01/01 Q1014  
EGTC 210850Z 18004KT 1800 BR VV/// 01/01 Q1014